This is the latest recevied weather packets stored in our database for station/object VANOK. If no packets are shown the sender has not sent any weather packets the latest 10 day(s).
| Time | Temp. | Humidity | Pressure | Rain* | Wind** | Luminosity | Snow |
|---|---|---|---|---|---|---|---|
| 1777748828 | 7.78° C | 78% | 1008.1 hPa | - | - | - | - |
| 1777747628 | 7.78° C | 77% | 1008.2 hPa | - | - | - | - |
| 1777746429 | 7.78° C | 78% | 1008.3 hPa | - | - | - | - |
| 1777745228 | 7.78° C | 78% | 1008.5 hPa | - | - | - | - |
| 1777744028 | 7.78° C | 78% | 1008.8 hPa | - | - | - | - |
| 1777742829 | 8.33° C | 75% | 1008.9 hPa | - | - | - | - |
| 1777741628 | 8.89° C | 72% | 1009.1 hPa | - | - | - | - |
| 1777740428 | 9.44° C | 71% | 1009.3 hPa | - | - | - | - |
| 1777739228 | 9.44° C | 69% | 1009.5 hPa | - | - | - | - |
| 1777738028 | 10° C | 67% | 1009.7 hPa | - | - | - | - |
| 1777736828 | 10° C | 65% | 1010 hPa | - | - | - | - |
| 1777735627 | 10° C | 65% | 1010.3 hPa | - | - | - | - |
| 1777734428 | 10° C | 65% | 1010.6 hPa | - | - | - | - |
| 1777733227 | 11.11° C | 63% | 1010.8 hPa | - | - | - | - |
| 1777732028 | 11.11° C | 63% | 1010.9 hPa | - | - | - | - |
| 1777729628 | 11.67° C | 62% | 1011.2 hPa | - | - | - | - |
| 1777728428 | 11.11° C | 63% | 1011.4 hPa | - | - | - | - |
| 1777727228 | 11.11° C | 63% | 1011.6 hPa | - | - | - | - |
| 1777726028 | 11.11° C | 62% | 1011.6 hPa | - | - | - | - |
| 1777724827 | 10° C | 66% | 1011.6 hPa | - | - | - | - |
| 1777723628 | 10° C | 66% | 1011.8 hPa | - | - | - | - |
| 1777722428 | 11.11° C | 60% | 1011.8 hPa | - | - | - | - |
| 1777721228 | 10.56° C | 64% | 1012 hPa | - | - | - | - |
| 1777720027 | 10° C | 64% | 1011.9 hPa | - | - | - | - |
| 1777718827 | 10° C | 66% | 1012 hPa | - | - | - | - |
* Rain since midnight (hover to see other rain measurements)
** Current wind speed in m/s (hover to see current wind gust speed)